Aérodrome :
LOGIN :

S'inscrire | Disclaimer

   EN    FR    IT 

 










Légende :    VFR   VFR Marginal   IFR   IFR Intensif   IFR Très Intensif
Visi : 
Plafond : 
>= 8 km
>= 3000ft
5 à 8 km
1000 à 3000 ft
1500m à 5 km
500 à 1000 ft
800 à 1500m
200 à 500 ft
< 800m
< 200 ft
Symboles :   Orages  Brouillard  Fortes neiges  Fortes précipitations  Vent > 20 kt
SIGMETs :   Divers  Orages  Givrage  Turbulence  Onde Orograph.  Cendres Volcan.






- Altitude de l'aérodrome : 461 ft
- Code IATA : WIE


ETOU - Wiesbaden Army

DERNIER METAR :
  • 060556Z AUTO 00000KT 9999 CLR 06/00 A3016 RMK AO2 SLP218 T00550001 10110 20039 52015 $

METARs EXPIRÉS :
  • 060456Z AUTO 00000KT 9999 CLR 06/M01 A3014 RMK AO2 SLP210 T00551010 $
  • 060356Z AUTO 00000KT 9999 CLR 06/M01 A3013 RMK AO2 SLP206 T00551012 $

TAF TAF ETOU
Valide du 06 à 04h jusqu'au 07 à 10h UTC


060400Z 0604/0710 VRB06KT 9999 SKC QNH3015INS
TEMPO 0610/0616 19010G18KT
BECMG 0704/0705 34004KT 5000 BR FEW025 QNH3025INS TX20/0615Z TN06/0703Z



MET'MAP, la Météo Aéronautique d'un coup d'oeil ! - Copyright ORBIFLY Décembre 2007 - Disclaimer

ORBIFLY MET'MAP TEAM :

Programmation & Développement : Alexandra Zaïnal
Sur une idée originale de : Baudouin d'Aumeries
Assistance à la programmation : Marc-Olivier Méhu
Soutien technique & logistique : Manuel Goepfert

Contact : metmap@orbifly.com




SOURCES & CREDITS :

   NOAA